Time;durP1;ratioP1;P1;durP2;ratioP2;P2;SDS_P1;SDS_P2;PMS_P1;PMS_P2;Temp;Humidity;BMP_temperature;BMP_pressure;BME280_temperature;BME280_humidity;BME280_pressure;Samples;Min_cycle;Max_cycle;Signal;HPM_P1;HPM_P2
2021/12/11 00:01:54;;;;;;;14.27;7.00;;;;;;;1.62;90.33;100151.34;5072248;28;20035;-77
2021/12/11 00:04:31;;;;;;;14.63;8.10;;;;;;;1.60;90.59;100148.06;5066673;28;20307;-78
2021/12/11 00:06:57;;;;;;;14.70;7.32;;;;;;;1.63;90.73;100157.53;5043287;28;20032;-77
2021/12/11 00:09:31;;;;;;;12.70;8.10;;;;;;;1.63;91.26;100158.34;5047119;28;20032;-77
2021/12/11 00:12:06;;;;;;;17.23;8.55;;;;;;;1.62;90.96;100155.91;5055422;28;20024;-78
2021/12/11 00:14:32;;;;;;;13.45;7.90;;;;;;;1.63;90.94;100163.72;5053287;28;20377;-77
2021/12/11 00:16:58;;;;;;;16.13;8.30;;;;;;;1.63;91.01;100163.72;5072535;28;20150;-77
2021/12/11 00:19:28;;;;;;;12.85;7.90;;;;;;;1.65;91.33;100169.69;5066566;28;20120;-77
2021/12/11 00:21:54;;;;;;;12.80;8.13;;;;;;;1.65;90.33;100164.31;5054057;28;20461;-78
2021/12/11 00:24:29;;;;;;;13.63;7.82;;;;;;;1.64;90.77;100165.38;5037120;28;20040;-77
2021/12/11 00:27:02;;;;;;;13.75;8.45;;;;;;;1.66;91.08;100163.25;5058041;28;20020;-78
2021/12/11 00:29:28;;;;;;;12.00;7.40;;;;;;;1.66;91.06;100160.56;5065098;28;20070;-77
2021/12/11 00:32:28;;;;;;;14.95;8.68;;;;;;;1.67;91.12;100166.78;5044548;28;20033;-77
2021/12/11 00:35:14;;;;;;;14.10;8.27;;;;;;;1.68;91.05;100171.91;5020655;28;20036;-78
2021/12/11 00:37:40;;;;;;;14.80;7.05;;;;;;;1.69;90.42;100168.19;5039861;28;20028;-78
2021/12/11 00:40:23;;;;;;;16.45;8.57;;;;;;;1.68;90.95;100177.28;5068388;28;20017;-77
2021/12/11 00:42:49;;;;;;;14.40;8.40;;;;;;;1.70;90.81;100177.88;5044222;28;20075;-78
2021/12/11 00:45:22;;;;;;;16.45;8.52;;;;;;;1.70;91.06;100177.88;5050851;28;20021;-78
2021/12/11 00:47:51;;;;;;;;;;;;;;;1.72;90.84;100183.84;5039769;28;20032;-78
2021/12/11 00:50:18;;;;;;;12.93;8.20;;;;;;;1.71;90.56;100176.81;5067680;28;19912;-78
2021/12/11 00:52:56;;;;;;;13.70;8.25;;;;;;;1.70;90.55;100185.13;5053676;28;20108;-78
2021/12/11 00:55:27;;;;;;;16.00;9.15;;;;;;;1.71;90.89;100192.94;5067243;28;20028;-78
2021/12/11 00:58:12;;;;;;;15.52;8.73;;;;;;;1.70;90.58;100185.94;5052318;28;20028;-77
2021/12/11 01:01:07;;;;;;;14.32;8.30;;;;;;;1.72;90.59;100191.09;5068565;28;20331;-77
2021/12/11 01:03:38;;;;;;;15.43;8.00;;;;;;;1.72;90.61;100193.78;5041428;28;20055;-77
2021/12/11 01:06:21;;;;;;;12.50;8.32;;;;;;;1.71;91.18;100195.63;5069144;28;20032;-78
2021/12/11 01:08:52;;;;;;;13.82;8.35;;;;;;;1.72;91.17;100194.59;5053673;28;20037;-77
2021/12/11 01:11:50;;;;;;;14.40;8.77;;;;;;;1.70;90.55;100199.38;5071973;28;20115;-78
2021/12/11 01:14:31;;;;;;;14.82;7.60;;;;;;;1.72;90.17;100204.53;5018090;28;20397;-78
2021/12/11 01:17:01;;;;;;;15.30;7.90;;;;;;;1.72;90.86;100204.53;5055828;28;20034;-78
2021/12/11 01:19:28;;;;;;;14.77;8.07;;;;;;;1.71;90.29;100209.06;5062325;28;20100;-78
2021/12/11 01:21:58;;;;;;;17.83;9.68;;;;;;;1.69;90.08;100211.19;5067433;28;20103;-77
2021/12/11 01:24:42;;;;;;;12.00;7.25;;;;;;;1.70;90.78;100207.44;5068184;28;20103;-78
2021/12/11 01:27:13;;;;;;;17.35;10.43;;;;;;;1.70;90.44;100212.81;5057141;28;20020;-78
2021/12/11 01:29:39;;;;;;;16.92;9.25;;;;;;;1.69;90.83;100219.25;5067393;28;20385;-78
2021/12/11 01:32:05;;;;;;;16.55;8.63;;;;;;;1.68;90.35;100216.78;5059236;28;20028;-78
2021/12/11 01:34:30;;;;;;;17.80;9.88;;;;;;;1.66;90.35;100217.00;5050906;28;20037;-78
2021/12/11 01:36:56;;;;;;;18.15;9.80;;;;;;;1.66;90.38;100218.84;5068272;28;20028;-78
2021/12/11 01:39:24;;;;;;;19.83;11.55;;;;;;;1.64;90.80;100224.47;5065420;28;20116;-78
2021/12/11 01:41:51;;;;;;;21.05;10.80;;;;;;;1.64;90.41;100235.22;5057040;28;20028;-78
2021/12/11 01:44:20;;;;;;;18.27;10.18;;;;;;;1.63;90.93;100232.75;5064835;28;20020;-78
2021/12/11 01:46:46;;;;;;;18.88;10.02;;;;;;;1.61;90.73;100235.69;5056607;28;20103;-78
2021/12/11 01:49:20;;;;;;;16.70;9.90;;;;;;;1.61;90.96;100241.06;5038002;28;20123;-78
2021/12/11 01:51:54;;;;;;;20.05;11.15;;;;;;;1.62;90.90;100242.69;5064553;28;20021;-78
2021/12/11 01:54:30;;;;;;;16.92;10.00;;;;;;;1.62;90.58;100244.56;5028239;28;20779;-78
2021/12/11 01:57:00;;;;;;;20.90;9.70;;;;;;;1.61;90.61;100246.44;5056718;28;20397;-77
2021/12/11 01:59:29;;;;;;;16.65;10.18;;;;;;;1.61;90.23;100257.19;5033256;28;20025;-78
2021/12/11 02:02:05;;;;;;;22.00;10.77;;;;;;;1.63;90.43;100259.63;5062791;28;20028;-78
2021/12/11 02:04:32;;;;;;;23.15;11.88;;;;;;;1.63;90.91;100265.81;5061741;28;20173;-78
2021/12/11 02:07:02;;;;;;;21.48;11.00;;;;;;;1.65;90.53;100263.72;5057107;28;20112;-78
2021/12/11 02:09:31;;;;;;;21.45;11.40;;;;;;;1.66;90.66;100264.53;5060570;28;20040;-77
2021/12/11 02:12:21;;;;;;;20.83;11.75;;;;;;;1.67;90.60;100272.38;5040060;28;20033;-78
2021/12/11 02:14:50;;;;;;;20.55;11.35;;;;;;;1.66;90.34;100268.03;5059642;28;20016;-78
2021/12/11 02:17:31;;;;;;;21.08;11.45;;;;;;;1.66;90.57;100264.53;5073916;28;20104;-78
2021/12/11 02:19:57;;;;;;;20.52;11.25;;;;;;;1.67;90.12;100275.06;5055016;28;20045;-78
2021/12/11 02:22:32;;;;;;;17.50;10.70;;;;;;;1.65;90.92;100279.84;5052387;28;20156;-78
2021/12/11 02:25:00;;;;;;;23.05;11.80;;;;;;;1.63;90.52;100276.56;5052598;28;20021;-78
2021/12/11 02:27:27;;;;;;;19.63;11.57;;;;;;;1.64;90.85;100283.59;5052638;28;20067;-78
2021/12/11 02:29:58;;;;;;;21.35;12.75;;;;;;;1.63;90.46;100275.75;5052420;28;20336;-78
2021/12/11 02:32:31;;;;;;;20.38;11.75;;;;;;;1.64;90.58;100277.41;5053487;28;20382;-78
2021/12/11 02:35:05;;;;;;;19.23;11.75;;;;;;;1.64;90.80;100283.59;5034188;28;20029;-78
2021/12/11 02:37:52;;;;;;;23.35;12.73;;;;;;;1.64;90.80;100278.22;5047043;28;20055;-78
2021/12/11 02:40:23;;;;;;;24.90;13.30;;;;;;;1.65;90.54;100279.84;5052266;28;20092;-77
2021/12/11 02:42:53;;;;;;;25.45;12.18;;;;;;;1.65;90.24;100287.09;5039659;28;20017;-78
2021/12/11 02:45:31;;;;;;;21.33;12.13;;;;;;;1.65;90.92;100279.84;5044690;28;20033;-78
2021/12/11 02:48:07;;;;;;;20.80;12.38;;;;;;;1.66;90.39;100292.22;5051162;28;20021;-77
2021/12/11 02:50:57;;;;;;;21.63;12.68;;;;;;;1.66;90.83;100302.97;5047367;28;20029;-77
2021/12/11 02:53:29;;;;;;;24.88;13.25;;;;;;;1.66;91.13;100302.97;5051665;28;20052;-77
2021/12/11 02:56:04;;;;;;;19.08;11.25;;;;;;;1.67;90.17;100303.81;5050494;28;20024;-77
2021/12/11 02:58:32;;;;;;;25.77;12.68;;;;;;;1.67;90.42;100299.25;5051813;28;20386;-78
2021/12/11 03:01:05;;;;;;;20.33;11.95;;;;;;;1.68;90.82;100311.63;5052959;28;20013;-78
2021/12/11 03:03:38;;;;;;;26.40;14.07;;;;;;;1.67;90.29;100303.81;5051237;28;20032;-78
2021/12/11 03:06:17;;;;;;;29.45;13.98;;;;;;;1.68;90.72;100305.44;5053111;28;20473;-78
2021/12/11 03:08:42;;;;;;;21.05;12.13;;;;;;;1.68;90.87;100295.50;5046106;28;20029;-78
2021/12/11 03:11:11;;;;;;;24.60;14.18;;;;;;;1.66;90.46;100292.22;5048347;28;20389;-78
2021/12/11 03:13:38;;;;;;;27.08;13.73;;;;;;;1.66;90.90;100288.72;5051549;28;20033;-78
2021/12/11 03:16:05;;;;;;;26.23;14.70;;;;;;;1.64;90.80;100294.34;5045587;28;20021;-77
2021/12/11 03:18:30;;;;;;;24.17;13.15;;;;;;;1.64;90.10;100288.97;5050177;28;20063;-78
2021/12/11 03:20:56;;;;;;;25.42;14.07;;;;;;;1.63;90.23;100295.38;5052671;28;20029;-78
2021/12/11 03:23:21;;;;;;;24.50;13.98;;;;;;;1.65;90.19;100301.34;5051628;28;20040;-78
2021/12/11 03:25:47;;;;;;;26.08;15.25;;;;;;;1.61;90.01;100297.47;5047259;28;20123;-78
2021/12/11 03:28:13;;;;;;;26.75;14.35;;;;;;;1.61;91.07;100300.16;5044688;28;20025;-78
2021/12/11 03:30:41;;;;;;;27.50;16.05;;;;;;;1.61;90.76;100297.47;5048125;28;20020;-78
2021/12/11 03:33:11;;;;;;;26.35;13.95;;;;;;;1.60;90.88;100303.88;5051506;28;20025;-78
2021/12/11 03:35:38;;;;;;;29.25;14.43;;;;;;;1.59;90.93;100307.63;5046215;28;20114;-78
2021/12/11 03:38:03;;;;;;;25.70;14.80;;;;;;;1.60;90.29;100303.88;5052520;28;20025;-78
2021/12/11 03:40:29;;;;;;;25.70;14.07;;;;;;;1.60;90.41;100303.88;5028588;28;20094;-78
2021/12/11 03:42:55;;;;;;;27.48;15.13;;;;;;;1.61;90.66;100316.28;5052144;28;20108;-78
2021/12/11 03:45:24;;;;;;;29.23;15.40;;;;;;;1.60;90.44;100311.94;5046566;28;20043;-78
2021/12/11 03:47:54;;;;;;;26.02;14.63;;;;;;;1.61;90.58;100312.75;5052090;28;20430;-78
2021/12/11 03:50:20;;;;;;;30.48;14.80;;;;;;;1.60;90.58;100320.00;5045715;28;20103;-78
2021/12/11 03:52:46;;;;;;;29.60;15.25;;;;;;;1.60;90.69;100321.88;5050647;28;20111;-78
2021/12/11 03:55:13;;;;;;;27.83;15.30;;;;;;;1.59;90.22;100323.75;5047928;28;20019;-78
2021/12/11 03:57:41;;;;;;;25.60;13.68;;;;;;;1.61;90.18;100329.72;5016156;28;20030;-78
2021/12/11 04:00:13;;;;;;;30.50;16.10;;;;;;;1.60;90.62;100325.38;5048892;28;20100;-78
2021/12/11 04:02:38;;;;;;;28.75;15.93;;;;;;;1.63;90.31;100334.84;5050908;28;20039;-78
2021/12/11 04:05:05;;;;;;;32.83;16.92;;;;;;;1.64;90.36;100342.69;5050686;28;20024;-78
2021/12/11 04:07:34;;;;;;;31.98;16.67;;;;;;;1.63;90.47;100341.03;5050585;28;20037;-77
2021/12/11 04:10:00;;;;;;;28.02;15.35;;;;;;;1.65;90.67;100344.31;5036853;28;20025;-77
2021/12/11 04:12:25;;;;;;;32.30;16.25;;;;;;;1.64;90.57;100341.88;5063484;28;20039;-78
2021/12/11 04:14:51;;;;;;;29.65;16.08;;;;;;;1.65;90.61;100356.94;5052470;28;20017;-78
2021/12/11 04:17:18;;;;;;;29.38;16.20;;;;;;;1.63;90.31;100346.41;5051889;28;20033;-78
2021/12/11 04:19:44;;;;;;;33.83;17.23;;;;;;;1.64;90.45;100352.63;5060049;28;20091;-77
2021/12/11 04:22:10;;;;;;;31.88;17.35;;;;;;;1.62;90.34;100352.03;5050377;28;20024;-78
2021/12/11 04:24:36;;;;;;;30.40;16.42;;;;;;;1.62;90.56;100355.53;5060045;28;20029;-78
2021/12/11 04:27:03;;;;;;;29.20;16.13;;;;;;;1.63;90.30;100356.34;5038918;28;20029;-78
2021/12/11 04:29:29;;;;;;;28.42;16.20;;;;;;;1.61;90.53;100358.44;5043728;28;20052;-78
2021/12/11 04:31:55;;;;;;;32.10;16.48;;;;;;;1.60;90.64;100362.97;5042553;28;20100;-78
2021/12/11 04:34:20;;;;;;;29.30;15.57;;;;;;;1.61;90.17;100369.16;5050604;28;20120;-78
2021/12/11 04:36:50;;;;;;;28.77;15.88;;;;;;;1.61;90.08;100375.41;5043186;28;20100;-78
2021/12/11 04:39:17;;;;;;;30.05;16.77;;;;;;;1.60;90.63;100368.34;5051435;28;20025;-78
2021/12/11 04:42:01;;;;;;;32.35;17.30;;;;;;;1.61;90.22;100380.78;5051659;28;20095;-78
2021/12/11 04:44:34;;;;;;;31.20;16.45;;;;;;;1.62;90.26;100385.09;5031566;28;20025;-78
2021/12/11 04:46:59;;;;;;;32.33;17.23;;;;;;;1.61;90.31;100386.13;5047069;28;20067;-78
2021/12/11 04:49:41;;;;;;;35.00;18.65;;;;;;;1.63;90.23;100391.28;5051045;28;20056;-78
2021/12/11 04:52:18;;;;;;;35.13;17.27;;;;;;;1.62;90.02;100392.31;5053469;28;20032;-78
2021/12/11 04:55:02;;;;;;;35.22;17.65;;;;;;;1.62;90.64;100393.16;5045746;28;20028;-78
2021/12/11 05:00:31;;;;;;;35.38;17.55;;;;;;;1.62;90.42;100398.53;5056228;28;20027;-78
2021/12/11 05:11:36;;;;;;;30.08;16.08;;;;;;;1.62;90.68;100398.53;5008747;28;20102;-78
2021/12/11 05:14:02;;;;;;;38.40;18.58;;;;;;;1.61;89.86;100401.41;5043947;28;20106;-77
2021/12/11 05:16:27;;;;;;;37.33;18.00;;;;;;;1.61;89.94;100406.78;5054973;28;20028;-78
2021/12/11 05:18:53;;;;;;;35.42;17.48;;;;;;;1.61;90.81;100401.41;5052413;28;20044;-77
2021/12/11 05:21:19;;;;;;;32.90;17.08;;;;;;;1.59;90.25;100409.72;5054549;28;20063;-77
2021/12/11 05:23:46;;;;;;;35.25;17.38;;;;;;;1.58;90.71;100408.06;5054029;28;20021;-78
2021/12/11 05:26:11;;;;;;;32.40;17.35;;;;;;;1.59;90.88;100417.78;5053792;28;20021;-77
2021/12/11 05:28:37;;;;;;;34.53;17.30;;;;;;;1.59;90.17;100414.28;5054614;28;20355;-77
2021/12/11 05:31:04;;;;;;;33.88;18.05;;;;;;;1.59;90.24;100415.09;5053469;28;20048;-77
2021/12/11 05:33:29;;;;;;;33.58;16.50;;;;;;;1.61;90.49;100428.28;5054781;28;20086;-77
2021/12/11 05:35:55;;;;;;;34.67;17.23;;;;;;;1.61;90.37;100423.75;5053519;28;20021;-78
2021/12/11 05:38:21;;;;;;;31.40;16.42;;;;;;;1.62;89.87;100422.69;5054690;28;20033;-78
2021/12/11 05:40:49;;;;;;;35.55;17.35;;;;;;;1.64;90.46;100433.25;5053357;28;20023;-78
2021/12/11 05:43:15;;;;;;;33.22;16.20;;;;;;;1.63;90.10;100431.56;5054580;28;20083;-78
2021/12/11 05:45:40;;;;;;;29.33;16.05;;;;;;;1.63;90.52;100437.75;5012831;28;20029;-78
2021/12/11 05:48:06;;;;;;;30.05;16.77;;;;;;;1.64;90.26;100443.97;5054455;28;20092;-78
2021/12/11 05:50:38;;;;;;;37.25;18.98;;;;;;;1.63;90.01;100443.13;5053026;28;20087;-77
2021/12/11 05:53:03;;;;;;;36.72;18.05;;;;;;;1.63;90.37;100453.88;5041197;28;20076;-78
2021/12/11 05:55:30;;;;;;;33.90;17.67;;;;;;;1.61;90.42;100447.94;5052945;28;20036;-78
2021/12/11 05:57:58;;;;;;;30.02;16.67;;;;;;;1.62;90.27;100449.56;5052559;28;20485;-77
2021/12/11 06:00:26;;;;;;;33.03;17.48;;;;;;;1.63;89.77;100464.63;5054342;28;20051;-78
2021/12/11 06:02:52;;;;;;;33.60;16.98;;;;;;;1.65;90.37;100470.63;5053006;28;20060;-77
2021/12/11 06:05:17;;;;;;;31.02;17.60;;;;;;;1.65;90.39;100467.94;5031946;28;20088;-77
2021/12/11 06:07:43;;;;;;;33.03;16.70;;;;;;;1.67;90.51;100473.91;5024106;28;20023;-77
2021/12/11 06:10:11;;;;;;;37.38;18.08;;;;;;;1.68;90.48;100467.47;5039472;28;20032;-78
2021/12/11 06:12:37;;;;;;;33.03;16.75;;;;;;;1.68;90.65;100472.84;5054143;28;20037;-77
2021/12/11 06:15:03;;;;;;;31.27;17.30;;;;;;;1.70;90.35;100468.09;5052537;28;20402;-77
2021/12/11 06:17:30;;;;;;;36.17;17.65;;;;;;;1.69;90.26;100474.50;5053762;28;20036;-78
2021/12/11 06:19:56;;;;;;;32.25;16.80;;;;;;;1.69;89.90;100469.13;5022864;28;20041;-78
2021/12/11 06:22:24;;;;;;;34.33;18.17;;;;;;;1.70;90.59;100478.03;5067994;28;20393;-78
2021/12/11 06:24:49;;;;;;;38.55;18.20;;;;;;;1.70;90.10;100478.84;5052281;28;20393;-78
2021/12/11 06:27:15;;;;;;;35.70;18.40;;;;;;;1.68;90.09;100483.59;5039102;28;20453;-78
2021/12/11 06:29:40;;;;;;;34.97;17.27;;;;;;;1.68;90.07;100482.78;5043874;28;20033;-78
2021/12/11 06:32:07;;;;;;;36.38;19.27;;;;;;;1.66;90.23;100483.00;5057330;28;20435;-77
2021/12/11 06:34:34;;;;;;;35.95;18.80;;;;;;;1.66;90.08;100490.25;5060544;28;20517;-78
2021/12/11 06:37:00;;;;;;;34.20;17.27;;;;;;;1.63;90.05;100488.81;5055375;28;20157;-78
2021/12/11 06:39:25;;;;;;;35.10;18.05;;;;;;;1.64;90.28;100495.84;5044174;28;20056;-78
2021/12/11 06:41:53;;;;;;;36.30;17.70;;;;;;;1.62;90.62;100492.56;5053544;28;20098;-78
2021/12/11 06:44:18;;;;;;;33.40;18.20;;;;;;;1.60;90.00;100497.31;5032079;28;20530;-77
2021/12/11 06:46:44;;;;;;;33.20;17.20;;;;;;;1.61;90.43;100498.13;5073301;28;20039;-78
2021/12/11 06:49:09;;;;;;;38.70;18.17;;;;;;;1.60;90.53;100497.31;5054814;28;20041;-78
2021/12/11 06:51:35;;;;;;;35.95;18.27;;;;;;;1.60;90.04;100496.50;5051904;28;20029;-77
2021/12/11 06:54:04;;;;;;;37.42;18.80;;;;;;;1.60;90.01;100501.88;5028138;28;20080;-77
2021/12/11 06:56:29;;;;;;;36.50;17.70;;;;;;;1.60;90.13;100504.56;5022810;28;20024;-78
2021/12/11 06:58:55;;;;;;;34.78;17.65;;;;;;;1.59;89.96;100503.75;5035511;28;20323;-78
2021/12/11 07:01:22;;;;;;;35.42;18.52;;;;;;;1.59;90.13;100511.81;5052009;28;20083;-78
2021/12/11 07:03:47;;;;;;;34.50;17.33;;;;;;;1.58;90.14;100510.16;5029819;28;20022;-78
2021/12/11 07:06:13;;;;;;;33.83;17.35;;;;;;;1.58;90.35;100504.78;5015383;28;20052;-78
2021/12/11 07:08:39;;;;;;;33.65;17.33;;;;;;;1.58;90.35;100515.53;5051854;28;20028;-78
2021/12/11 07:11:06;;;;;;;36.75;19.05;;;;;;;1.58;90.31;100518.22;5038285;28;20025;-78
2021/12/11 07:13:31;;;;;;;32.85;18.27;;;;;;;1.59;90.19;100521.75;5064631;28;20033;-78
2021/12/11 07:15:57;;;;;;;36.10;18.80;;;;;;;1.59;89.84;100525.25;5038420;28;20179;-78
2021/12/11 07:18:23;;;;;;;41.38;18.67;;;;;;;1.61;90.14;100533.06;5051863;28;20021;-78
2021/12/11 07:20:50;;;;;;;34.58;19.10;;;;;;;1.61;90.96;100533.91;5035532;28;20033;-78
2021/12/11 07:23:16;;;;;;;39.55;18.85;;;;;;;1.63;90.33;100537.19;5043846;28;20123;-78
2021/12/11 07:26:05;;;;;;;36.78;19.15;;;;;;;1.65;90.15;100532.41;5053169;28;20024;-78
2021/12/11 07:28:31;;;;;;;34.97;17.88;;;;;;;1.67;90.17;100541.09;5050534;28;20365;-78
2021/12/11 07:30:58;;;;;;;38.60;20.42;;;;;;;1.67;90.39;100545.66;5052626;28;20028;-78
2021/12/11 07:33:23;;;;;;;38.50;20.42;;;;;;;1.67;90.37;100551.84;5051420;28;20031;-78
2021/12/11 07:35:49;;;;;;;40.92;19.67;;;;;;;1.68;90.07;100549.97;5050871;28;20021;-79
2021/12/11 07:38:14;;;;;;;34.88;18.30;;;;;;;1.68;90.39;100548.09;5053983;28;20027;-79
2021/12/11 07:40:43;;;;;;;33.92;17.75;;;;;;;1.70;90.48;100545.19;5050309;28;20016;-78
2021/12/11 07:43:10;;;;;;;38.83;18.70;;;;;;;1.70;90.51;100556.75;5054867;28;20036;-78
2021/12/11 07:45:35;;;;;;;35.90;17.42;;;;;;;1.70;90.08;100556.75;5048477;28;20512;-79
2021/12/11 07:48:01;;;;;;;35.60;18.13;;;;;;;1.70;90.53;100564.81;5052337;28;20028;-77
2021/12/11 07:50:27;;;;;;;41.10;19.02;;;;;;;1.71;90.42;100569.16;5046694;28;20024;-79
2021/12/11 07:52:52;;;;;;;35.90;19.27;;;;;;;1.73;90.44;100571.63;5050017;28;20017;-79
2021/12/11 07:55:18;;;;;;;39.33;19.25;;;;;;;1.74;90.31;100567.88;5051176;28;20037;-79
2021/12/11 07:57:45;;;;;;;37.95;20.00;;;;;;;1.74;90.42;100582.13;5051369;28;20009;-79
2021/12/11 08:00:12;;;;;;;35.22;18.50;;;;;;;1.73;90.43;100577.81;5029700;28;20375;-79
2021/12/11 08:02:39;;;;;;;37.55;18.05;;;;;;;1.72;90.04;100581.56;5054517;28;20016;-79
2021/12/11 08:05:05;;;;;;;32.78;18.80;;;;;;;1.71;90.30;100585.28;5003439;28;20090;-79
2021/12/11 08:07:30;;;;;;;43.13;20.33;;;;;;;1.71;90.05;100585.28;5045565;28;20052;-78
2021/12/11 08:09:56;;;;;;;36.90;19.58;;;;;;;1.73;90.04;100598.50;5039874;28;20028;-78
2021/12/11 08:12:21;;;;;;;39.45;19.08;;;;;;;1.73;90.10;100599.31;5060760;28;20032;-78
2021/12/11 08:14:47;;;;;;;35.25;18.08;;;;;;;1.73;90.27;100601.19;5050867;28;20017;-78
2021/12/11 08:17:12;;;;;;;35.78;18.90;;;;;;;1.73;90.03;100604.69;5062774;28;20486;-78
2021/12/11 08:19:38;;;;;;;34.78;18.83;;;;;;;1.74;90.46;100609.00;5049207;28;20099;-78
2021/12/11 08:22:05;;;;;;;37.22;19.05;;;;;;;1.75;90.07;100608.00;5051220;28;20025;-79
2021/12/11 08:24:30;;;;;;;37.80;18.85;;;;;;;1.74;90.58;100603.63;5061082;28;20342;-79
2021/12/11 08:27:06;;;;;;;36.00;18.83;;;;;;;1.75;90.31;100615.22;5051907;28;20539;-79
2021/12/11 08:29:32;;;;;;;38.55;19.42;;;;;;;1.75;89.94;100613.38;5061793;28;20033;-79
2021/12/11 08:31:58;;;;;;;40.00;19.90;;;;;;;1.75;90.21;100617.94;5047742;28;20020;-79
2021/12/11 08:34:23;;;;;;;40.78;20.23;;;;;;;1.76;90.71;100615.00;5063762;28;20031;-78
2021/12/11 08:36:49;;;;;;;36.10;18.38;;;;;;;1.81;90.13;100622.41;5052056;28;20031;-78
2021/12/11 08:39:15;;;;;;;33.50;18.70;;;;;;;1.82;90.44;100623.22;5012850;28;20032;-79
2021/12/11 08:41:40;;;;;;;35.95;18.83;;;;;;;1.82;89.73;100628.59;5008616;28;20025;-79
2021/12/11 08:44:10;;;;;;;37.97;19.67;;;;;;;1.83;90.65;100632.94;5050487;28;20531;-78
2021/12/11 08:46:36;;;;;;;39.80;19.25;;;;;;;1.86;90.24;100640.56;5045331;28;20024;-78
2021/12/11 08:49:07;;;;;;;34.88;18.63;;;;;;;1.87;90.00;100639.53;5048677;28;20029;-77
2021/12/11 08:51:41;;;;;;;37.85;19.67;;;;;;;1.91;90.02;100643.41;5067168;28;20028;-78
2021/12/11 08:54:07;;;;;;;39.00;19.80;;;;;;;1.93;90.54;100635.94;5054287;28;20032;-79
2021/12/11 08:56:34;;;;;;;40.33;18.95;;;;;;;1.95;90.17;100645.44;5075345;28;20032;-78
2021/12/11 08:59:00;;;;;;;40.17;20.30;;;;;;;1.97;89.99;100642.53;5037588;28;20021;-79
2021/12/11 09:01:30;;;;;;;34.72;18.75;;;;;;;2.00;90.22;100639.41;5053454;28;20431;-79
2021/12/11 09:04:06;;;;;;;38.83;19.98;;;;;;;2.05;89.68;100642.25;5054059;28;20025;-79
2021/12/11 09:06:39;;;;;;;41.63;20.40;;;;;;;2.10;90.28;100642.44;5055180;28;20438;-78
2021/12/11 09:09:08;;;;;;;37.22;19.67;;;;;;;2.14;90.19;100649.00;5060990;28;20037;-78
2021/12/11 09:11:44;;;;;;;37.63;18.40;;;;;;;2.17;90.01;100647.72;5054951;28;20024;-78
2021/12/11 09:14:15;;;;;;;40.75;19.95;;;;;;;2.21;90.13;100652.44;5061452;28;20033;-79
2021/12/11 09:16:50;;;;;;;36.65;18.88;;;;;;;2.23;89.66;100654.91;5036856;28;20083;-78
2021/12/11 09:19:24;;;;;;;38.33;19.73;;;;;;;2.25;89.87;100655.50;5051701;28;20107;-79
2021/12/11 09:22:06;;;;;;;34.50;18.92;;;;;;;2.29;89.78;100650.50;5049351;28;20382;-79
2021/12/11 09:24:48;;;;;;;;;;;;;;;2.34;89.51;100650.66;5046210;28;20029;-79
2021/12/11 09:27:19;;;;;;;39.78;19.42;;;;;;;2.37;89.53;100652.91;5031610;28;19967;-80
2021/12/11 09:29:55;;;;;;;36.85;19.65;;;;;;;2.42;89.68;100651.19;5044324;28;20033;-79
2021/12/11 09:32:39;;;;;;;38.08;19.35;;;;;;;2.51;89.62;100659.81;5054767;28;20032;-80
2021/12/11 09:35:06;;;;;;;40.10;18.83;;;;;;;2.55;89.11;100661.00;5060709;28;20116;-80
2021/12/11 09:37:32;;;;;;;36.05;19.25;;;;;;;2.57;89.47;100668.84;5054413;28;20462;-79
2021/12/11 09:40:15;;;;;;;37.22;19.63;;;;;;;2.61;89.64;100670.84;5042800;28;20026;-79
2021/12/11 09:42:40;;;;;;;37.83;19.42;;;;;;;2.67;89.35;100664.59;5015333;28;20108;-79
2021/12/11 09:45:08;;;;;;;36.33;18.52;;;;;;;2.75;89.15;100670.72;5044313;28;20119;-79
2021/12/11 09:47:38;;;;;;;38.08;18.83;;;;;;;2.79;89.32;100671.91;5054237;28;20021;-79
2021/12/11 09:50:16;;;;;;;36.15;19.52;;;;;;;2.84;89.30;100680.16;5021135;28;20487;-79
2021/12/11 09:52:44;;;;;;;39.03;20.55;;;;;;;2.91;88.70;100683.56;5031643;28;20031;-79
2021/12/11 09:55:32;;;;;;;31.90;17.77;;;;;;;3.01;89.00;100693.81;5052954;28;20024;-79
2021/12/11 09:58:00;;;;;;;39.00;19.50;;;;;;;3.06;89.20;100683.19;5051010;28;20100;-79
2021/12/11 10:00:44;;;;;;;35.38;18.70;;;;;;;3.10;88.81;100690.56;5032149;28;20021;-79
2021/12/11 10:03:09;;;;;;;35.17;18.08;;;;;;;3.19;89.11;100687.56;5053732;28;20086;-79
2021/12/11 10:05:44;;;;;;;41.92;20.33;;;;;;;3.21;88.90;100685.47;5059834;28;20549;-79
2021/12/11 10:11:11;;;;;;;34.92;19.00;;;;;;;3.30;88.35;100692.19;5056407;28;20040;-79
2021/12/11 10:13:42;;;;;;;35.05;19.02;;;;;;;3.29;88.03;100698.63;5060767;28;20024;-79
2021/12/11 10:16:07;;;;;;;34.83;18.17;;;;;;;3.28;88.25;100700.50;5054593;28;20032;-79
2021/12/11 10:18:33;;;;;;;32.53;19.00;;;;;;;3.28;88.13;100697.00;5067084;28;20056;-79
2021/12/11 10:21:02;;;;;;;31.30;18.20;;;;;;;3.29;88.11;100698.63;5056930;28;20037;-79
2021/12/11 10:23:31;;;;;;;37.88;19.58;;;;;;;3.29;87.78;100693.25;5055801;28;20032;-80
2021/12/11 10:25:58;;;;;;;37.58;19.70;;;;;;;3.29;88.01;100701.31;5057753;28;20419;-79
2021/12/11 10:28:27;;;;;;;30.95;18.13;;;;;;;3.27;88.21;100698.03;5052425;28;20021;-79
2021/12/11 10:31:00;;;;;;;35.00;18.83;;;;;;;3.27;88.13;100708.81;5020912;28;20036;-79
2021/12/11 10:33:27;;;;;;;34.55;18.60;;;;;;;3.28;87.82;100707.78;5045438;28;20474;-79
2021/12/11 10:35:57;;;;;;;33.45;18.65;;;;;;;3.30;87.81;100711.03;5052851;28;20107;-79
2021/12/11 10:38:22;;;;;;;32.70;18.42;;;;;;;3.32;87.51;100711.66;5055301;28;20024;-80
2021/12/11 10:40:50;;;;;;;31.95;18.30;;;;;;;3.39;87.81;100709.69;5054194;28;20021;-79
2021/12/11 10:43:28;;;;;;;32.33;17.50;;;;;;;3.48;87.80;100712.88;5055555;28;20028;-79
2021/12/11 10:45:54;;;;;;;37.33;18.92;;;;;;;3.54;87.76;100718.16;5043945;28;20588;-78
2021/12/11 10:48:23;;;;;;;31.85;19.02;;;;;;;3.64;87.32;100711.44;5073133;28;20091;-79
2021/12/11 10:50:57;;;;;;;31.73;17.77;;;;;;;3.67;87.27;100724.44;5058941;28;20033;-79
2021/12/11 10:53:24;;;;;;;33.75;18.02;;;;;;;3.69;87.07;100725.84;5051917;28;20021;-79
2021/12/11 10:55:54;;;;;;;33.25;18.27;;;;;;;3.69;87.07;100733.13;5029734;28;20056;-80
2021/12/11 10:58:22;;;;;;;34.53;18.15;;;;;;;3.73;86.78;100731.59;5038436;28;20446;-79
2021/12/11 11:00:54;;;;;;;36.13;20.35;;;;;;;3.72;86.87;100738.88;5057409;28;20051;-79
2021/12/11 11:03:19;;;;;;;35.60;20.00;;;;;;;3.72;86.84;100746.97;5054935;28;20016;-79
2021/12/11 11:05:45;;;;;;;34.65;19.67;;;;;;;3.72;86.86;100746.16;5059328;28;20442;-80
2021/12/11 11:08:10;;;;;;;38.08;18.65;;;;;;;3.66;86.47;100753.28;5052816;28;20712;-79
2021/12/11 11:10:43;;;;;;;31.55;17.40;;;;;;;3.58;86.45;100756.28;5023185;28;20089;-80
2021/12/11 11:13:11;;;;;;;38.00;20.02;;;;;;;3.49;86.58;100760.34;5047525;28;20098;-79
2021/12/11 11:15:37;;;;;;;32.35;17.27;;;;;;;3.41;86.64;100761.50;5060492;28;20025;-80
2021/12/11 11:18:04;;;;;;;34.85;19.40;;;;;;;3.36;86.47;100758.66;5052649;28;20035;-79
2021/12/11 11:20:34;;;;;;;37.92;18.63;;;;;;;3.30;86.45;100764.94;5051612;28;20040;-79
2021/12/11 11:22:59;;;;;;;37.35;19.45;;;;;;;3.28;86.40;100767.88;5038505;28;20024;-79
2021/12/11 11:25:30;;;;;;;32.13;18.52;;;;;;;3.29;86.70;100777.59;5054136;28;20501;-80
2021/12/11 11:28:01;;;;;;;32.20;17.48;;;;;;;3.26;86.58;100774.53;5054618;28;20020;-80
2021/12/11 11:30:32;;;;;;;37.50;20.80;;;;;;;3.27;86.77;100774.31;5044942;28;20029;-79
2021/12/11 11:32:59;;;;;;;33.72;19.27;;;;;;;3.28;86.34;100777.81;5045980;28;20079;-79
2021/12/11 11:35:27;;;;;;;35.40;18.83;;;;;;;3.29;86.60;100784.84;5033573;28;20041;-79
2021/12/11 11:37:54;;;;;;;34.70;19.70;;;;;;;3.28;86.55;100783.22;5062986;28;20025;-80
2021/12/11 11:40:30;;;;;;;33.42;18.25;;;;;;;3.25;86.09;100800.66;5043645;28;20386;-79
2021/12/11 11:42:57;;;;;;;35.08;19.23;;;;;;;3.20;86.18;100797.81;5028965;28;20024;-79
2021/12/11 11:45:23;;;;;;;39.55;19.38;;;;;;;3.16;86.21;100796.59;5057982;28;20374;-79